Latest Weather Observations for Hobart

IDT60801

Issued at 7:41 am EST Tuesday 20 April 2021 (issued every 10 minutes, with the page automatically refreshed every 10 minutes)

About weather observations | Map of weather stations | Latest weather observations for TAS | Other Formats
Station Details ID: 094029 Name: HOBART (ELLERSLIE ROAD) Lat: -42.89 Lon: 147.33 Height: 50.5 m
Data from the previous 72 hours. | See also: Recent months at Hobart
Date/Time
EST
Temp
°C
App
Temp
°C
Dew
Point
°C
Rel
Hum
%
Delta-T
°C
Wind Press
QNH
hPa
Press
MSL
hPa
Rain since
9am
mm
Dir  Spd
km/h
Gust
km/h
Spd
kts
Gust
kts
20/07:30am 10.9 6.5 6.5 74 2.1 SW 19 30 10 16 1004.8 1004.8 0.8
20/07:00am 10.8 8.0 7.1 78 1.8 SW 11 17 6 9 1004.1 1004.1 0.8
20/06:30am 11.3 9.5 8.0 80 1.6 NW 7 9 4 5 1003.5 1003.5 0.6
20/06:00am 11.9 9.1 7.0 72 2.4 W 11 20 6 11 1003.3 1003.3 0.4
20/05:30am 11.6 10.0 8.1 79 1.7 SSW 6 13 3 7 1003.0 1003.0 0.2
20/05:00am 12.1 10.0 8.2 77 1.9 SSW 9 13 5 7 1002.5 1002.5 0.0
20/04:30am 12.4 7.9 8.7 78 1.8 SW 22 33 12 18 1001.7 1001.7 0.0
20/04:00am 13.2 10.3 9.5 78 1.9 S 15 28 8 15 1001.5 1001.5 0.0
20/03:30am 13.9 12.0 8.9 72 2.5 W 9 17 5 9 1001.1 1001.1 0.0
20/03:00am 14.4 10.3 8.8 69 2.9 WNW 20 37 11 20 1000.8 1000.8 0.0
20/02:30am 15.7 8.8 7.2 57 4.2 WNW 33 56 18 30 1000.4 1000.4 0.0
20/02:00am 15.9 8.6 7.4 57 4.3 WNW 35 65 19 35 999.8 999.8 0.0
20/01:30am 16.1 8.5 7.6 57 4.3 NW 37 56 20 30 999.9 999.9 0.0
20/01:05am 16.2 10.3 7.7 57 4.3 NW 28 46 15 25 1000.3 1000.3 0.0
20/01:00am 15.9 10.9 7.9 59 4.1 NW 24 43 13 23 1000.2 1000.2 0.0
20/12:34am 15.9 9.5 8.4 61 3.8 NW 32 50 17 27 1000.6 1000.6 0.0
20/12:30am 16.1 9.4 8.3 60 4.0 NW 33 50 18 27 1000.7 1000.7 0.0
20/12:27am 16.1 9.6 8.1 59 4.0 NW 32 50 17 27 1000.6 1000.6 0.0
20/12:00am 16.1 11.8 7.8 58 4.2 NW 20 43 11 23 1000.7 1000.7 0.0
 
Date/Time
EST
Temp
°C
App
Temp
°C
Dew
Point
°C
Rel
Hum
%
Delta-T
°C
Wind Press
QNH
hPa
Press
MSL
hPa
Rain since
9am
mm
Dir  Spd
km/h
Gust
km/h
Spd
kts
Gust
kts
19/11:30pm 15.6 12.6 7.6 59 4.0 N 13 24 7 13 1001.2 1001.2 0.0
19/11:00pm 15.4 12.8 7.7 60 3.9 NNW 11 17 6 9 1001.5 1001.5 0.0
19/10:30pm 15.5 12.5 7.5 59 4.0 N 13 20 7 11 1001.9 1001.9 0.0
19/10:00pm 15.5 12.0 7.3 58 4.1 N 15 30 8 16 1002.1 1002.1 0.0
19/09:30pm 15.5 11.3 7.3 58 4.1 N 19 30 10 16 1002.0 1002.0 0.0
19/09:00pm 15.5 12.7 6.8 56 4.3 NNW 11 24 6 13 1002.8 1002.8 0.0
19/08:30pm 15.5 10.8 6.0 53 4.6 NNW 20 30 11 16 1002.7 1002.7 0.0
19/08:00pm 15.6 11.5 6.3 54 4.5 NNW 17 30 9 16 1003.0 1003.0 0.0
19/07:30pm 15.3 11.5 5.8 53 4.6 NNW 15 28 8 15 1003.2 1003.2 0.0
19/07:00pm 15.9 10.3 5.5 50 5.0 NW 24 41 13 22 1003.7 1003.7 0.0
19/06:30pm 15.9 11.0 5.2 49 5.1 NNW 20 32 11 17 1003.6 1003.6 0.0
19/06:00pm 16.0 11.6 4.7 47 5.4 NNW 17 26 9 14 1003.8 1003.8 0.0
19/05:30pm 16.7 9.6 5.3 47 5.5 NW 32 50 17 27 1004.0 1004.0 0.0
19/05:00pm 17.1 10.9 6.3 49 5.3 NW 28 50 15 27 1003.7 1003.7 0.0
19/04:54pm 17.3 11.0 5.9 47 5.6 NW 28 50 15 27 1003.6 1003.6 0.0
19/04:30pm 18.0 13.3 5.2 43 6.2 NNW 19 32 10 17 1003.4 1003.4 0.0
19/04:00pm 18.3 11.8 4.8 41 6.5 NNW 28 43 15 23 1003.5 1003.5 0.0
19/03:35pm 18.2 10.6 4.0 39 6.7 NNW 33 52 18 28 1004.0 1004.0 0.0
19/03:30pm 18.4 10.9 4.2 39 6.8 NW 33 48 18 26 1004.1 1004.1 0.0
19/03:00pm 19.0 11.2 4.7 39 6.9 NW 35 57 19 31 1004.4 1004.4 0.0
19/02:30pm 18.6 10.6 5.5 42 6.4 NW 37 59 20 32 1004.3 1004.3 0.0
19/02:02pm 18.2 12.0 6.1 45 6.0 NW 28 46 15 25 1004.7 1004.7 0.0
19/02:00pm 18.3 12.5 6.2 45 6.0 NW 26 39 14 21 1004.7 1004.7 0.0
19/01:30pm 18.9 11.4 6.4 44 6.2 NNW 35 57 19 31 1005.0 1005.0 0.0
19/01:00pm 18.7 10.0 5.9 43 6.3 NNW 41 65 22 35 1005.1 1005.1 0.0
19/12:30pm 19.0 10.4 6.5 44 6.2 NW 41 63 22 34 1005.3 1005.3 0.0
19/12:00pm 18.7 11.4 7.2 47 5.8 NW 35 59 19 32 1005.8 1005.8 0.0
19/11:36am 16.8 10.6 6.0 49 5.3 NW 28 52 15 28 1006.4 1006.4 0.0
19/11:30am 16.8 9.9 6.6 51 5.0 NW 32 46 17 25 1006.6 1006.6 0.0
19/11:23am 16.6 10.4 6.1 50 5.1 NW 28 46 15 25 1006.8 1006.8 0.0
19/11:00am 16.2 9.2 6.1 51 4.9 NW 32 48 17 26 1007.1 1007.1 0.0
19/10:51am 16.0 9.8 6.2 52 4.8 NW 28 48 15 26 1007.2 1007.2 0.0
19/10:30am 15.7 10.6 6.2 53 4.6 NW 22 37 12 20 1007.6 1007.6 0.0
19/10:00am 14.9 8.3 6.2 56 4.2 NW 30 43 16 23 1008.0 1008.0 0.0
19/09:30am 14.7 7.6 6.3 57 4.1 NNW 33 54 18 29 1008.1 1008.1 0.0
19/09:16am 14.5 7.0 6.1 57 4.0 NNW 35 54 19 29 1008.1 1008.1 0.0
19/09:00am 14.4 7.2 6.0 57 4.0 NNW 33 46 18 25 1008.2 1008.2 0.0
19/08:30am 14.3 7.2 6.2 58 3.9 NNW 33 44 18 24 1008.3 1008.3 0.0
19/08:00am 14.0 6.5 6.1 59 3.8 NNW 35 44 19 24 1008.2 1008.2 0.0
19/07:39am 13.8 6.7 6.2 60 3.6 NNW 33 52 18 28 1008.0 1008.0 0.0
19/07:30am 13.8 6.9 6.4 61 3.6 NNW 32 43 17 23 1007.9 1007.9 0.0
19/07:00am 13.5 6.9 6.1 61 3.5 NNW 30 48 16 26 1008.0 1008.0 0.0
19/06:55am 13.5 7.4 6.4 62 3.4 NNW 28 48 15 26 1008.0 1008.0 0.0
19/06:30am 13.4 7.2 6.3 62 3.4 NNW 28 43 15 23 1008.3 1008.3 0.0
19/06:16am 13.4 7.2 6.3 62 3.4 N 28 48 15 26 1008.3 1008.3 0.0
19/06:00am 13.1 7.4 6.5 64 3.2 NNW 26 37 14 20 1008.4 1008.4 0.0
19/05:30am 13.3 8.0 6.6 64 3.2 N 24 37 13 20 1008.5 1008.5 0.0
19/05:00am 12.9 7.9 6.5 65 3.1 NW 22 35 12 19 1008.8 1008.8 0.0
19/04:30am 13.2 6.3 6.3 63 3.3 NNW 32 48 17 26 1008.5 1008.5 0.0
19/04:00am 13.0 6.8 6.1 63 3.3 NNW 28 41 15 22 1008.3 1008.3 0.0
19/03:35am 13.1 6.9 6.0 62 3.4 NNW 28 50 15 27 1008.4 1008.4 0.0
19/03:30am 13.0 6.8 6.1 63 3.3 NNW 28 39 15 21 1008.5 1008.5 0.0
19/03:00am 12.9 7.4 6.0 63 3.3 NNW 24 39 13 21 1009.1 1009.1 0.0
19/02:30am 13.0 7.2 6.4 64 3.2 NNW 26 35 14 19 1009.7 1009.7 0.0
19/02:00am 13.1 6.1 6.2 63 3.3 NNW 32 41 17 22 1010.1 1010.1 0.0
19/01:30am 13.0 5.8 6.1 63 3.3 NNW 33 50 18 27 1010.4 1010.3 0.0
19/01:00am 13.3 6.3 5.9 61 3.5 NNW 32 52 17 28 1010.4 1010.3 0.0
19/12:30am 13.5 6.3 5.9 60 3.6 NNW 33 56 18 30 1009.9 1009.9 0.0
19/12:14am 13.8 6.8 5.9 59 3.8 NNW 32 56 17 30 1010.2 1010.2 0.0
19/12:00am 13.6 8.2 6.2 61 3.5 N 24 37 13 20 1010.6 1010.5 0.0
 
Date/Time
EST
Temp
°C
App
Temp
°C
Dew
Point
°C
Rel
Hum
%
Delta-T
°C
Wind Press
QNH
hPa
Press
MSL
hPa
Rain since
9am
mm
Dir  Spd
km/h
Gust
km/h
Spd
kts
Gust
kts
18/11:30pm 13.7 8.4 6.6 62 3.4 N 24 41 13 22 1010.8 1010.7 0.0
18/11:00pm 13.7 8.4 6.6 62 3.4 NNW 24 35 13 19 1011.5 1011.5 0.0
18/10:30pm 13.7 9.2 6.8 63 3.3 NNW 20 32 11 17 1011.9 1011.9 0.0
18/10:00pm 13.8 9.3 6.9 63 3.4 NNW 20 26 11 14 1012.2 1012.2 0.0
18/09:30pm 14.2 9.2 6.6 60 3.7 NNW 22 37 12 20 1012.0 1012.0 0.0
18/09:00pm 14.6 9.2 6.4 58 4.0 NNW 24 37 13 20 1012.0 1012.0 0.0
18/08:30pm 14.4 9.1 7.0 61 3.6 NW 24 35 13 19 1012.5 1012.5 0.0
18/08:00pm 14.5 9.8 7.8 64 3.3 NW 22 32 12 17 1012.4 1012.4 0.0
18/07:30pm 14.8 10.1 7.8 63 3.5 NNW 22 28 12 15 1012.3 1012.3 0.0
18/07:00pm 14.9 10.1 7.5 61 3.7 NNW 22 30 12 16 1012.1 1012.1 0.0
18/06:30pm 15.3 9.4 7.6 60 3.8 NW 28 39 15 21 1012.2 1012.2 0.0
18/06:00pm 15.4 10.2 7.4 59 4.0 NW 24 32 13 17 1012.0 1012.0 0.0
18/05:30pm 15.7 10.6 7.5 58 4.1 NW 24 39 13 21 1011.8 1011.8 0.0
18/05:00pm 16.0 10.0 7.2 56 4.4 NW 28 41 15 22 1011.7 1011.7 0.0
18/04:30pm 16.2 11.0 7.4 56 4.4 NNW 24 37 13 20 1011.9 1011.9 0.0
18/04:00pm 16.3 10.4 7.5 56 4.4 NNW 28 44 15 24 1011.9 1011.9 0.0
18/03:30pm 16.3 10.4 7.5 56 4.4 NNW 28 41 15 22 1012.0 1012.0 0.0
18/03:00pm 16.4 11.4 7.9 57 4.3 NNW 24 43 13 23 1012.0 1012.0 0.0
18/02:30pm 16.4 10.2 7.9 57 4.3 NNW 30 44 16 24 1012.0 1012.0 0.0
18/02:00pm 16.5 11.1 8.2 58 4.2 NNW 26 41 14 22 1012.3 1012.3 0.0
18/01:30pm 16.3 10.1 7.8 57 4.3 NNW 30 48 16 26 1012.7 1012.7 0.0
18/01:25pm 16.4 10.2 7.9 57 4.3 NNW 30 48 16 26 1012.6 1012.6 0.0
18/01:00pm 16.1 9.6 8.1 59 4.0 NNW 32 46 17 25 1012.9 1012.9 0.0
18/12:30pm 16.1 10.3 8.1 59 4.0 NNW 28 39 15 21 1013.4 1013.4 0.0
18/12:00pm 16.0 10.1 7.7 58 4.2 NNW 28 41 15 22 1013.9 1013.9 0.0
18/11:30am 16.0 9.8 7.7 58 4.2 NNW 30 41 16 22 1014.3 1014.3 0.0
18/11:00am 16.1 10.3 7.8 58 4.2 NNW 28 39 15 21 1014.4 1014.4 0.0
18/10:30am 15.8 10.6 7.3 57 4.2 NNW 24 37 13 20 1014.8 1014.8 0.0
18/10:03am 15.2 8.4 7.0 58 4.0 NNW 32 50 17 27 1014.7 1014.7 0.0
18/10:00am 15.2 8.2 7.0 58 4.0 NNW 33 50 18 27 1014.6 1014.6 0.0
18/09:30am 14.4 7.5 7.2 62 3.5 NNW 33 52 18 28 1014.5 1014.5 0.0
18/09:22am 14.3 7.4 7.1 62 3.5 NNW 33 52 18 28 1014.5 1014.5 0.0
18/09:00am 14.2 8.3 7.3 63 3.4 NNW 28 39 15 21 1014.8 1014.8 0.0
18/08:38am 14.0 7.2 7.1 63 3.4 NNW 32 50 17 27 1014.7 1014.7 0.0
18/08:30am 14.1 7.2 7.2 63 3.4 NNW 33 50 18 27 1014.5 1014.5 0.0
18/08:20am 14.2 7.8 7.0 62 3.5 NNW 30 48 16 26 1014.6 1014.6 0.0
18/08:00am 14.0 7.6 7.1 63 3.4 NNW 30 46 16 25 1014.7 1014.7 0.0
18/07:52am 13.8 7.8 7.1 64 3.3 NNW 28 46 15 25 1014.7 1014.7 0.0
18/07:30am 13.4 7.4 7.0 65 3.1 NNW 28 37 15 20 1014.6 1014.6 0.0
18/07:00am 13.2 5.9 7.0 66 3.0 NNW 35 46 19 25 1014.0 1014.0 0.0
18/06:30am 13.0 5.6 6.8 66 3.0 NNW 35 46 19 25 1014.0 1014.0 0.0
18/06:00am 12.8 5.0 6.6 66 3.0 NNW 37 50 20 27 1014.1 1014.1 0.0
18/05:30am 12.8 5.4 6.8 67 2.9 NNW 35 48 19 26 1013.6 1013.6 0.0
18/05:00am 12.8 5.0 6.6 66 3.0 NW 37 52 20 28 1013.8 1013.8 0.0
18/04:32am 13.0 5.6 6.8 66 3.0 NW 35 57 19 31 1013.7 1013.7 0.0
18/04:30am 13.0 6.2 6.8 66 3.0 NW 32 48 17 26 1013.7 1013.7 0.0
18/04:06am 12.9 5.9 6.7 66 3.0 NW 33 52 18 28 1013.7 1013.7 0.0
18/04:00am 13.0 6.0 6.8 66 3.0 NW 33 48 18 26 1013.6 1013.6 0.0
18/03:36am 13.1 6.6 6.7 65 3.1 NW 30 48 16 26 1013.8 1013.8 0.0
18/03:30am 13.1 7.8 6.7 65 3.1 NW 24 43 13 23 1013.9 1013.9 0.0
18/03:00am 13.0 8.6 6.4 64 3.2 NW 19 33 10 18 1014.4 1014.4 0.0
18/02:30am 13.2 7.8 6.3 63 3.3 NW 24 41 13 22 1014.8 1014.8 0.0
18/02:00am 13.1 7.4 6.5 64 3.2 NW 26 39 14 21 1015.1 1015.1 0.0
18/01:38am 13.3 6.4 6.6 64 3.2 NNW 32 50 17 27 1015.1 1015.1 0.0
18/01:30am 13.4 5.9 6.5 63 3.3 NNW 35 46 19 25 1015.1 1015.1 0.0
18/01:15am 13.5 6.4 6.4 62 3.4 NNW 33 52 18 28 1014.9 1014.9 0.0
18/01:00am 13.5 6.1 6.6 63 3.3 NNW 35 48 19 26 1015.2 1015.2 0.0
18/12:35am 13.6 6.8 6.9 64 3.2 NNW 32 54 17 29 1015.3 1015.3 0.0
18/12:30am 13.5 6.7 7.1 65 3.1 NNW 32 48 17 26 1015.3 1015.3 0.0
18/12:12am 13.5 7.4 6.8 64 3.2 NNW 28 48 15 26 1015.3 1015.3 0.0
18/12:00am 13.7 7.7 7.0 64 3.3 NNW 28 44 15 24 1015.4 1015.4 0.0
 
Date/Time
EST
Temp
°C
App
Temp
°C
Dew
Point
°C
Rel
Hum
%
Delta-T
°C
Wind Press
QNH
hPa
Press
MSL
hPa
Rain since
9am
mm
Dir  Spd
km/h
Gust
km/h
Spd
kts
Gust
kts
17/11:30pm 13.6 8.3 6.9 64 3.2 NNW 24 41 13 22 1015.9 1015.9 0.0
17/11:00pm 13.6 8.3 6.7 63 3.3 NNW 24 41 13 22 1016.2 1016.2 0.0
17/10:31pm 13.6 7.5 6.5 62 3.4 NNW 28 46 15 25 1016.3 1016.3 0.0
17/10:30pm 13.7 7.2 6.6 62 3.4 NNW 30 46 16 25 1016.3 1016.3 0.0
17/10:26pm 13.8 7.7 6.7 62 3.4 NNW 28 46 15 25 1016.3 1016.3 0.0
17/10:00pm 13.6 8.3 6.7 63 3.3 NNW 24 33 13 18 1016.6 1016.6 0.0
17/09:30pm 13.2 8.8 6.5 64 3.2 NW 19 32 10 17 1016.8 1016.8 0.0
17/09:00pm 13.1 9.1 6.7 65 3.1 NW 17 30 9 16 1016.6 1016.6 0.0
17/08:30pm 13.4 8.9 7.0 65 3.1 NW 20 30 11 16 1016.5 1016.5 0.0
17/08:00pm 13.8 9.9 6.9 63 3.3 NW 17 26 9 14 1016.6 1016.6 0.0
17/07:30pm 13.9 11.4 6.7 62 3.5 NNW 9 13 5 7 1016.5 1016.5 0.0
17/07:00pm 14.4 11.9 6.7 60 3.7 NW 9 24 5 13 1016.4 1016.4 0.0
17/06:30pm 14.6 10.9 6.4 58 4.0 W 15 28 8 15 1016.2 1016.2 0.0
17/06:00pm 15.1 10.1 6.4 56 4.2 WNW 22 35 12 19 1015.7 1015.7 0.0
17/05:30pm 15.7 11.3 7.5 58 4.1 NW 20 33 11 18 1015.3 1015.3 0.0
17/05:00pm 16.0 11.7 8.0 59 4.0 NNW 20 30 11 16 1015.4 1015.4 0.0
17/04:30pm 16.2 12.9 7.9 58 4.2 NW 15 26 8 14 1015.5 1015.5 0.0
17/04:00pm 16.6 13.2 7.8 56 4.4 NW 15 24 8 13 1015.3 1015.3 0.0
17/03:30pm 16.8 13.5 8.0 56 4.5 WNW 15 28 8 15 1015.3 1015.3 0.0
17/03:00pm 16.5 12.7 9.0 61 3.9 NW 19 33 10 18 1015.4 1015.4 0.0
17/02:30pm 16.8 13.2 8.5 58 4.3 NNW 17 24 9 13 1015.1 1015.1 0.0
17/02:00pm 17.0 13.4 8.2 56 4.5 NW 17 26 9 14 1015.0 1015.0 0.0
17/01:30pm 16.9 12.9 8.1 56 4.5 NW 19 32 10 17 1015.0 1015.0 0.0
17/01:00pm 17.2 12.7 8.4 56 4.5 NW 22 37 12 20 1015.3 1015.3 0.0
17/12:30pm 17.4 14.1 8.0 54 4.8 NNW 15 26 8 14 1015.7 1015.7 0.0
17/12:00pm 16.9 12.1 7.5 54 4.7 NNW 22 33 12 18 1015.9 1015.9 0.0
17/11:30am 17.6 13.2 7.4 51 5.1 NW 20 35 11 19 1016.1 1016.1 0.0
17/11:00am 17.7 12.2 7.4 51 5.2 NNW 26 33 14 18 1016.1 1016.1 0.0
17/10:30am 16.8 10.2 7.7 55 4.6 NNW 32 44 17 24 1015.9 1015.9 0.0
17/10:00am 16.5 10.2 7.4 55 4.5 NNW 30 41 16 22 1015.9 1015.9 0.0
17/09:30am 15.3 9.2 6.8 57 4.2 NNW 28 41 15 22 1016.2 1016.2 0.0
17/09:00am 15.5 9.4 6.8 56 4.3 NNW 28 46 15 25 1016.2 1016.2 0.0
17/08:30am 13.8 7.5 5.7 58 3.8 NNW 28 41 15 22 1016.2 1016.2 0.0
17/08:00am 13.2 5.5 5.4 59 3.6 NNW 35 46 19 25 1016.2 1016.2 0.0

Other formats

Comma delimited format used in spreadsheet applications
http://www.bom.gov.au/fwo/IDT60801/IDT60801.94970.axf

JavaScript Object Notation format (JSON) in row-major order
http://www.bom.gov.au/fwo/IDT60801/IDT60801.94970.json

Data quality

Most of these data are generated automatically and are frequently updated. Quality checks on data are not normally performed. It is possible for incorrect values to appear. Refer to information at About Latest Weather Observations and please check the disclaimer before using these data.